JIA5091 KLBB-KDFW
Flight info
| Callsign | JIA5091 |
|---|---|
| Flight time | 0h 44m |
| Altitude | 25000 |
| Route | HNKER VKTRY2 |
| Aircraft | CRJ9/M-SDFGIRWY/S |
Departure
| Time | 2026-04-26 01:05 |
|---|---|
| Airport | Lubbock Preston Smith International Airport (KLBB) |
Arrival
| Time | 2026-04-26 01:49 |
|---|---|
| Airport | Dallas Fort Worth International Airport (KDFW) |
| Time | Latitude | Longitude | Altitude | Speed | Heading |
|---|---|---|---|---|---|
| 2026-04-26 00:43 | 33.65729 | -101.82258 | 3291 ft | 0 kts | 183° |
| 2026-04-26 00:55 | 33.65741 | -101.82257 | 3291 ft | 3 kts | 183° |
| 2026-04-26 00:55 | 33.65761 | -101.82256 | 3291 ft | 3 kts | 183° |
| 2026-04-26 00:55 | 33.65781 | -101.82255 | 3291 ft | 3 kts | 186° |
| 2026-04-26 00:55 | 33.65795 | -101.82252 | 3291 ft | 3 kts | 243° |
| 2026-04-26 00:56 | 33.65801 | -101.82234 | 3291 ft | 3 kts | 251° |
| 2026-04-26 00:56 | 33.65807 | -101.82214 | 3291 ft | 2 kts | 251° |
| 2026-04-26 00:56 | 33.65808 | -101.82211 | 3291 ft | 0 kts | 251° |
| 2026-04-26 00:58 | 33.65806 | -101.82219 | 3291 ft | 3 kts | 250° |
| 2026-04-26 00:58 | 33.65796 | -101.82263 | 3291 ft | 8 kts | 268° |
| 2026-04-26 00:58 | 33.65834 | -101.82322 | 3291 ft | 12 kts | 328° |
| 2026-04-26 00:59 | 33.65921 | -101.82372 | 3291 ft | 16 kts | 343° |
| 2026-04-26 00:59 | 33.66010 | -101.82393 | 3291 ft | 16 kts | 326° |
| 2026-04-26 00:59 | 33.66030 | -101.82501 | 3291 ft | 8 kts | 269° |
| 2026-04-26 00:59 | 33.66029 | -101.82581 | 3291 ft | 12 kts | 269° |
| 2026-04-26 01:00 | 33.66045 | -101.82685 | 3291 ft | 11 kts | 320° |
| 2026-04-26 01:00 | 33.66106 | -101.82691 | 3291 ft | 18 kts | 0° |
| 2026-04-26 01:00 | 33.66232 | -101.82691 | 3291 ft | 18 kts | 360° |
| 2026-04-26 01:00 | 33.66351 | -101.82692 | 3291 ft | 17 kts | 360° |
| 2026-04-26 01:01 | 33.66465 | -101.82693 | 3291 ft | 16 kts | 360° |
| 2026-04-26 01:01 | 33.66585 | -101.82694 | 3292 ft | 20 kts | 359° |
| 2026-04-26 01:01 | 33.66747 | -101.82695 | 3291 ft | 26 kts | 359° |
| 2026-04-26 01:01 | 33.66929 | -101.82696 | 3292 ft | 26 kts | 359° |
| 2026-04-26 01:02 | 33.67122 | -101.82699 | 3291 ft | 29 kts | 359° |
| 2026-04-26 01:02 | 33.67317 | -101.82701 | 3291 ft | 27 kts | 359° |
| 2026-04-26 01:02 | 33.67520 | -101.82702 | 3291 ft | 28 kts | 359° |
| 2026-04-26 01:02 | 33.67713 | -101.82704 | 3291 ft | 30 kts | 360° |
| 2026-04-26 01:03 | 33.67910 | -101.82705 | 3291 ft | 30 kts | 359° |
| 2026-04-26 01:03 | 33.68097 | -101.82706 | 3292 ft | 21 kts | 360° |
| 2026-04-26 01:03 | 33.68208 | -101.82721 | 3292 ft | 15 kts | 321° |
| 2026-04-26 01:03 | 33.68224 | -101.82826 | 3293 ft | 14 kts | 269° |
| 2026-04-26 01:04 | 33.68186 | -101.82903 | 3293 ft | 6 kts | 188° |
| 2026-04-26 01:04 | 33.68161 | -101.82903 | 3292 ft | 8 kts | 180° |
| 2026-04-26 01:04 | 33.67999 | -101.82902 | 3293 ft | 45 kts | 180° |
| 2026-04-26 01:04 | 33.67489 | -101.82899 | 3289 ft | 102 kts | 179° |
| 2026-04-26 01:05 | 33.66616 | -101.82891 | 3293 ft | 147 kts | 179° |
| 2026-04-26 01:05 | 33.65476 | -101.82882 | 3381 ft | 175 kts | 180° |
| 2026-04-26 01:05 | 33.64240 | -101.82860 | 3883 ft | 179 kts | 181° |
| 2026-04-26 01:05 | 33.62952 | -101.82834 | 4249 ft | 191 kts | 180° |
| 2026-04-26 01:06 | 33.61567 | -101.82794 | 4617 ft | 206 kts | 180° |
| 2026-04-26 01:06 | 33.60029 | -101.82739 | 4707 ft | 240 kts | 179° |
| 2026-04-26 01:06 | 33.58308 | -101.82576 | 5217 ft | 254 kts | 168° |
| 2026-04-26 01:06 | 33.56650 | -101.81774 | 5901 ft | 261 kts | 150° |
| 2026-04-26 01:07 | 33.55220 | -101.80362 | 6526 ft | 271 kts | 133° |
| 2026-04-26 01:07 | 33.54156 | -101.78484 | 7052 ft | 284 kts | 115° |
| 2026-04-26 01:07 | 33.53725 | -101.76119 | 7597 ft | 294 kts | 94° |
| 2026-04-26 01:07 | 33.53936 | -101.73671 | 8331 ft | 297 kts | 81° |
| 2026-04-26 01:08 | 33.54330 | -101.71205 | 8957 ft | 303 kts | 79° |
| 2026-04-26 01:08 | 33.54788 | -101.68723 | 9629 ft | 307 kts | 78° |
| 2026-04-26 01:08 | 33.55249 | -101.66198 | 10185 ft | 313 kts | 79° |
| 2026-04-26 01:08 | 33.55549 | -101.64498 | 10558 ft | 315 kts | 79° |
| 2026-04-26 01:09 | 33.56154 | -101.61053 | 11312 ft | 321 kts | 79° |
| 2026-04-26 01:09 | 33.56621 | -101.58375 | 11541 ft | 339 kts | 79° |
| 2026-04-26 01:09 | 33.57117 | -101.55536 | 11713 ft | 357 kts | 79° |
| 2026-04-26 01:09 | 33.57468 | -101.53534 | 11872 ft | 367 kts | 79° |
| 2026-04-26 01:10 | 33.57990 | -101.50532 | 12271 ft | 375 kts | 79° |
| 2026-04-26 01:10 | 33.58526 | -101.47445 | 12819 ft | 380 kts | 79° |
| 2026-04-26 01:10 | 33.59072 | -101.44313 | 13342 ft | 384 kts | 79° |
| 2026-04-26 01:10 | 33.59619 | -101.41153 | 13826 ft | 388 kts | 78° |
| 2026-04-26 01:11 | 33.60170 | -101.37970 | 14282 ft | 392 kts | 78° |
| 2026-04-26 01:11 | 33.60722 | -101.34787 | 14740 ft | 396 kts | 78° |
| 2026-04-26 01:11 | 33.61287 | -101.31519 | 15186 ft | 399 kts | 78° |
| 2026-04-26 01:11 | 33.61850 | -101.28238 | 15640 ft | 402 kts | 77° |
| 2026-04-26 01:12 | 33.62427 | -101.24930 | 16091 ft | 406 kts | 77° |
| 2026-04-26 01:12 | 33.62997 | -101.21601 | 16516 ft | 409 kts | 77° |
| 2026-04-26 01:12 | 33.63575 | -101.18248 | 16946 ft | 412 kts | 77° |
| 2026-04-26 01:12 | 33.64146 | -101.14901 | 17353 ft | 416 kts | 77° |
| 2026-04-26 01:13 | 33.64732 | -101.11490 | 17763 ft | 418 kts | 77° |
| 2026-04-26 01:13 | 33.65315 | -101.08052 | 18127 ft | 421 kts | 77° |
| 2026-04-26 01:13 | 33.65903 | -101.04594 | 18459 ft | 424 kts | 77° |
| 2026-04-26 01:13 | 33.66496 | -101.01114 | 18787 ft | 427 kts | 77° |
| 2026-04-26 01:14 | 33.67092 | -100.97611 | 19111 ft | 430 kts | 77° |
| 2026-04-26 01:14 | 33.67689 | -100.94073 | 19420 ft | 432 kts | 77° |
| 2026-04-26 01:14 | 33.68284 | -100.90567 | 19729 ft | 435 kts | 77° |
| 2026-04-26 01:14 | 33.68886 | -100.86993 | 20044 ft | 437 kts | 77° |
| 2026-04-26 01:15 | 33.69493 | -100.83397 | 20333 ft | 440 kts | 77° |
| 2026-04-26 01:15 | 33.70100 | -100.79778 | 20610 ft | 443 kts | 77° |
| 2026-04-26 01:15 | 33.70711 | -100.76137 | 20894 ft | 445 kts | 77° |
| 2026-04-26 01:15 | 33.71319 | -100.72522 | 21169 ft | 448 kts | 77° |
| 2026-04-26 01:16 | 33.71933 | -100.68846 | 21436 ft | 450 kts | 77° |
| 2026-04-26 01:16 | 33.72549 | -100.65145 | 21698 ft | 452 kts | 77° |
| 2026-04-26 01:16 | 33.73167 | -100.61434 | 21979 ft | 454 kts | 77° |
| 2026-04-26 01:16 | 33.73789 | -100.57694 | 22209 ft | 457 kts | 77° |
| 2026-04-26 01:17 | 33.74410 | -100.53946 | 22466 ft | 458 kts | 77° |
| 2026-04-26 01:17 | 33.75033 | -100.50184 | 22730 ft | 460 kts | 77° |
| 2026-04-26 01:17 | 33.75659 | -100.46397 | 22951 ft | 463 kts | 77° |
| 2026-04-26 01:17 | 33.76286 | -100.42591 | 23178 ft | 465 kts | 77° |
| 2026-04-26 01:18 | 33.76916 | -100.38769 | 23373 ft | 466 kts | 77° |
| 2026-04-26 01:18 | 33.77551 | -100.34934 | 23564 ft | 468 kts | 76° |
| 2026-04-26 01:18 | 33.78305 | -100.31178 | 23754 ft | 468 kts | 72° |
| 2026-04-26 01:18 | 33.79215 | -100.27401 | 23951 ft | 469 kts | 71° |
| 2026-04-26 01:19 | 33.80144 | -100.23634 | 24125 ft | 471 kts | 71° |
| 2026-04-26 01:19 | 33.81054 | -100.19845 | 24308 ft | 472 kts | 72° |
| 2026-04-26 01:19 | 33.81926 | -100.16027 | 24491 ft | 474 kts | 72° |
| 2026-04-26 01:19 | 33.82805 | -100.12188 | 24567 ft | 478 kts | 72° |
| 2026-04-26 01:20 | 33.83690 | -100.08315 | 24616 ft | 484 kts | 72° |
| 2026-04-26 01:20 | 33.84585 | -100.04368 | 24636 ft | 493 kts | 72° |
| 2026-04-26 01:20 | 33.85496 | -100.00356 | 24649 ft | 501 kts | 72° |
| 2026-04-26 01:20 | 33.86408 | -99.96323 | 24655 ft | 510 kts | 72° |
| 2026-04-26 01:21 | 33.87345 | -99.92176 | 24656 ft | 517 kts | 72° |
| 2026-04-26 01:21 | 33.88293 | -99.87962 | 24657 ft | 525 kts | 72° |
| 2026-04-26 01:21 | 33.89254 | -99.83697 | 24658 ft | 531 kts | 72° |
| 2026-04-26 01:21 | 33.90225 | -99.79379 | 24645 ft | 537 kts | 73° |
| 2026-04-26 01:22 | 33.91192 | -99.75044 | 24643 ft | 526 kts | 73° |
| 2026-04-26 01:22 | 33.92132 | -99.70823 | 24631 ft | 520 kts | 72° |
| 2026-04-26 01:22 | 33.93077 | -99.66629 | 24624 ft | 513 kts | 72° |
| 2026-04-26 01:22 | 33.94001 | -99.62498 | 24619 ft | 508 kts | 72° |
| 2026-04-26 01:23 | 33.94905 | -99.58447 | 24621 ft | 504 kts | 72° |
| 2026-04-26 01:23 | 33.95817 | -99.54351 | 24621 ft | 508 kts | 73° |
| 2026-04-26 01:23 | 33.96586 | -99.50197 | 24605 ft | 504 kts | 83° |
| 2026-04-26 01:23 | 33.96388 | -99.46005 | 24606 ft | 503 kts | 103° |
| 2026-04-26 01:24 | 33.95287 | -99.41983 | 24632 ft | 510 kts | 114° |
| 2026-04-26 01:24 | 33.93858 | -99.38034 | 24642 ft | 516 kts | 115° |
| 2026-04-26 01:24 | 33.92471 | -99.34119 | 24635 ft | 502 kts | 113° |
| 2026-04-26 01:24 | 33.91230 | -99.30210 | 24625 ft | 497 kts | 111° |
| 2026-04-26 01:25 | 33.90075 | -99.26369 | 24622 ft | 490 kts | 111° |
| 2026-04-26 01:25 | 33.88898 | -99.22485 | 24621 ft | 499 kts | 111° |
| 2026-04-26 01:25 | 33.87678 | -99.18535 | 24626 ft | 504 kts | 112° |
| 2026-04-26 01:25 | 33.86631 | -99.15209 | 24613 ft | 505 kts | 112° |
| 2026-04-26 01:26 | 33.85463 | -99.11516 | 24620 ft | 514 kts | 112° |
| 2026-04-26 01:26 | 33.84181 | -99.07456 | 24632 ft | 523 kts | 111° |
| 2026-04-26 01:26 | 33.82924 | -99.03457 | 24632 ft | 510 kts | 111° |
| 2026-04-26 01:26 | 33.81763 | -98.99746 | 24625 ft | 509 kts | 111° |
| 2026-04-26 01:27 | 33.80733 | -98.96459 | 24622 ft | 509 kts | 111° |
| 2026-04-26 01:27 | 33.79476 | -98.92474 | 24630 ft | 510 kts | 111° |
| 2026-04-26 01:27 | 33.78216 | -98.88503 | 24638 ft | 503 kts | 112° |
| 2026-04-26 01:27 | 33.76980 | -98.84607 | 24644 ft | 494 kts | 112° |
| 2026-04-26 01:28 | 33.75753 | -98.80731 | 24651 ft | 500 kts | 111° |
| 2026-04-26 01:28 | 33.74507 | -98.76790 | 24633 ft | 510 kts | 111° |
| 2026-04-26 01:28 | 33.73231 | -98.72784 | 24317 ft | 506 kts | 112° |
| 2026-04-26 01:28 | 33.71998 | -98.68935 | 23925 ft | 495 kts | 112° |
| 2026-04-26 01:29 | 33.70766 | -98.65101 | 23535 ft | 489 kts | 112° |
| 2026-04-26 01:29 | 33.69542 | -98.61296 | 23150 ft | 483 kts | 112° |
| 2026-04-26 01:29 | 33.68350 | -98.57565 | 22690 ft | 476 kts | 111° |
| 2026-04-26 01:29 | 33.67185 | -98.53883 | 22237 ft | 467 kts | 111° |
| 2026-04-26 01:30 | 33.66046 | -98.50269 | 21761 ft | 455 kts | 111° |
| 2026-04-26 01:30 | 33.64932 | -98.46747 | 21328 ft | 446 kts | 111° |
| 2026-04-26 01:30 | 33.63835 | -98.43295 | 20902 ft | 454 kts | 111° |
| 2026-04-26 01:30 | 33.62704 | -98.39735 | 20493 ft | 458 kts | 111° |
| 2026-04-26 01:31 | 33.61548 | -98.36109 | 20091 ft | 467 kts | 112° |
| 2026-04-26 01:31 | 33.60384 | -98.32476 | 19715 ft | 462 kts | 111° |
| 2026-04-26 01:31 | 33.59249 | -98.28916 | 19321 ft | 451 kts | 111° |
| 2026-04-26 01:31 | 33.58141 | -98.25431 | 18905 ft | 441 kts | 111° |
| 2026-04-26 01:32 | 33.57057 | -98.22027 | 18504 ft | 433 kts | 111° |
| 2026-04-26 01:32 | 33.55973 | -98.18651 | 18121 ft | 437 kts | 111° |
| 2026-04-26 01:32 | 33.54889 | -98.15286 | 17706 ft | 437 kts | 111° |
| 2026-04-26 01:32 | 33.53791 | -98.11885 | 17274 ft | 439 kts | 111° |
| 2026-04-26 01:33 | 33.52699 | -98.08492 | 16843 ft | 431 kts | 112° |
| 2026-04-26 01:33 | 33.51624 | -98.05161 | 16411 ft | 426 kts | 112° |
| 2026-04-26 01:33 | 33.50551 | -98.01852 | 15989 ft | 426 kts | 112° |
| 2026-04-26 01:33 | 33.49712 | -97.99265 | 15667 ft | 425 kts | 112° |
| 2026-04-26 01:34 | 33.48654 | -97.96003 | 15255 ft | 415 kts | 112° |
| 2026-04-26 01:34 | 33.47623 | -97.92812 | 14841 ft | 406 kts | 112° |
| 2026-04-26 01:34 | 33.46584 | -97.89611 | 14440 ft | 418 kts | 112° |
| 2026-04-26 01:34 | 33.45521 | -97.86322 | 14056 ft | 424 kts | 112° |
| 2026-04-26 01:35 | 33.44486 | -97.83078 | 13664 ft | 411 kts | 112° |
| 2026-04-26 01:35 | 33.43478 | -97.79923 | 13237 ft | 402 kts | 112° |
| 2026-04-26 01:35 | 33.42465 | -97.76798 | 12809 ft | 405 kts | 112° |
| 2026-04-26 01:35 | 33.41458 | -97.73683 | 12394 ft | 395 kts | 112° |
| 2026-04-26 01:36 | 33.40479 | -97.70644 | 11968 ft | 390 kts | 112° |
| 2026-04-26 01:36 | 33.39499 | -97.67599 | 11554 ft | 394 kts | 112° |
| 2026-04-26 01:36 | 33.38432 | -97.64569 | 11148 ft | 393 kts | 119° |
| 2026-04-26 01:37 | 33.35526 | -97.59288 | 10348 ft | 369 kts | 130° |
| 2026-04-26 01:37 | 33.33997 | -97.56911 | 9937 ft | 361 kts | 131° |
| 2026-04-26 01:37 | 33.32492 | -97.54550 | 9531 ft | 354 kts | 131° |
| 2026-04-26 01:37 | 33.31013 | -97.52236 | 9158 ft | 345 kts | 131° |
| 2026-04-26 01:38 | 33.29596 | -97.49975 | 8889 ft | 334 kts | 130° |
| 2026-04-26 01:38 | 33.28229 | -97.47780 | 8616 ft | 325 kts | 130° |
| 2026-04-26 01:38 | 33.27118 | -97.45454 | 8334 ft | 325 kts | 109° |
| 2026-04-26 01:38 | 33.26772 | -97.42747 | 8099 ft | 330 kts | 95° |
| 2026-04-26 01:39 | 33.26697 | -97.40026 | 7856 ft | 330 kts | 92° |
| 2026-04-26 01:39 | 33.26657 | -97.37251 | 7633 ft | 337 kts | 93° |
| 2026-04-26 01:39 | 33.26606 | -97.34471 | 7410 ft | 330 kts | 94° |
| 2026-04-26 01:39 | 33.26507 | -97.31777 | 7178 ft | 319 kts | 95° |
| 2026-04-26 01:40 | 33.26367 | -97.29171 | 6984 ft | 310 kts | 96° |
| 2026-04-26 01:40 | 33.26234 | -97.26619 | 6786 ft | 307 kts | 95° |
| 2026-04-26 01:40 | 33.26178 | -97.24067 | 6597 ft | 309 kts | 94° |
| 2026-04-26 01:40 | 33.26154 | -97.21476 | 6422 ft | 314 kts | 93° |
| 2026-04-26 01:41 | 33.26148 | -97.18896 | 6242 ft | 303 kts | 92° |
| 2026-04-26 01:41 | 33.26155 | -97.16430 | 6028 ft | 291 kts | 92° |
| 2026-04-26 01:41 | 33.26166 | -97.14036 | 5796 ft | 286 kts | 93° |
| 2026-04-26 01:41 | 33.26187 | -97.11673 | 5583 ft | 281 kts | 93° |
| 2026-04-26 01:42 | 33.26216 | -97.09343 | 5369 ft | 279 kts | 92° |
| 2026-04-26 01:42 | 33.26248 | -97.07060 | 5177 ft | 276 kts | 92° |
| 2026-04-26 01:42 | 33.26036 | -97.04839 | 5057 ft | 264 kts | 116° |
| 2026-04-26 01:42 | 33.25015 | -97.03060 | 5037 ft | 262 kts | 146° |
| 2026-04-26 01:43 | 33.23438 | -97.02086 | 5052 ft | 246 kts | 167° |
| 2026-04-26 01:43 | 33.21822 | -97.01875 | 5038 ft | 226 kts | 184° |
| 2026-04-26 01:43 | 33.20267 | -97.01942 | 5022 ft | 231 kts | 186° |
| 2026-04-26 01:43 | 33.18635 | -97.02058 | 5091 ft | 230 kts | 186° |
| 2026-04-26 01:44 | 33.17038 | -97.02164 | 4953 ft | 232 kts | 184° |
| 2026-04-26 01:44 | 33.15403 | -97.02233 | 4799 ft | 233 kts | 185° |
| 2026-04-26 01:44 | 33.13805 | -97.02332 | 4554 ft | 228 kts | 185° |
| 2026-04-26 01:44 | 33.12228 | -97.02412 | 4249 ft | 226 kts | 183° |
| 2026-04-26 01:45 | 33.10649 | -97.02439 | 4008 ft | 226 kts | 183° |
| 2026-04-26 01:45 | 33.09106 | -97.02481 | 3763 ft | 224 kts | 182° |
| 2026-04-26 01:45 | 33.07557 | -97.02518 | 3489 ft | 221 kts | 181° |
| 2026-04-26 01:45 | 33.06023 | -97.02521 | 3207 ft | 216 kts | 182° |
| 2026-04-26 01:46 | 33.04536 | -97.02559 | 2879 ft | 211 kts | 182° |
| 2026-04-26 01:46 | 33.03112 | -97.02591 | 2537 ft | 199 kts | 180° |
| 2026-04-26 01:46 | 33.01721 | -97.02583 | 2225 ft | 200 kts | 179° |
| 2026-04-26 01:46 | 33.00354 | -97.02579 | 2033 ft | 197 kts | 179° |
| 2026-04-26 01:47 | 32.99394 | -97.02570 | 1917 ft | 180 kts | 179° |
| 2026-04-26 01:47 | 32.98288 | -97.02569 | 1862 ft | 142 kts | 179° |
| 2026-04-26 01:47 | 32.97371 | -97.02589 | 1632 ft | 137 kts | 178° |
| 2026-04-26 01:47 | 32.96436 | -97.02592 | 1527 ft | 130 kts | 179° |
| 2026-04-26 01:48 | 32.95477 | -97.02601 | 1393 ft | 141 kts | 179° |
| 2026-04-26 01:48 | 32.94521 | -97.02587 | 1206 ft | 140 kts | 177° |
| 2026-04-26 01:48 | 32.93548 | -97.02593 | 1019 ft | 145 kts | 179° |
| 2026-04-26 01:48 | 32.92539 | -97.02590 | 822 ft | 143 kts | 179° |
| 2026-04-26 01:49 | 32.91541 | -97.02598 | 613 ft | 136 kts | 178° |
| 2026-04-26 01:49 | 32.90722 | -97.02603 | 573 ft | 93 kts | 180° |
| 2026-04-26 01:49 | 32.90216 | -97.02605 | 577 ft | 55 kts | 180° |
| 2026-04-26 01:49 | 32.89866 | -97.02607 | 570 ft | 42 kts | 180° |
| 2026-04-26 01:50 | 32.89652 | -97.02639 | 566 ft | 28 kts | 198° |
| 2026-04-26 01:50 | 32.89496 | -97.02734 | 573 ft | 17 kts | 211° |
| 2026-04-26 01:50 | 32.89408 | -97.02794 | 570 ft | 14 kts | 206° |
| 2026-04-26 01:50 | 32.89322 | -97.02805 | 572 ft | 12 kts | 179° |
| 2026-04-26 01:51 | 32.89249 | -97.02805 | 574 ft | 10 kts | 181° |
| 2026-04-26 01:51 | 32.89185 | -97.02806 | 576 ft | 9 kts | 180° |
| 2026-04-26 01:51 | 32.89123 | -97.02806 | 575 ft | 9 kts | 180° |
| 2026-04-26 01:51 | 32.89052 | -97.02806 | 576 ft | 11 kts | 180° |
| 2026-04-26 01:52 | 32.88974 | -97.02806 | 575 ft | 11 kts | 181° |
| 2026-04-26 01:52 | 32.88898 | -97.02808 | 574 ft | 10 kts | 180° |
| 2026-04-26 01:52 | 32.88813 | -97.02808 | 577 ft | 17 kts | 180° |
| 2026-04-26 01:52 | 32.88674 | -97.02808 | 574 ft | 18 kts | 180° |
| 2026-04-26 01:53 | 32.88600 | -97.02832 | 573 ft | 1 kts | 250° |
| 2026-04-26 01:53 | 32.88600 | -97.02890 | 571 ft | 13 kts | 271° |
| 2026-04-26 01:53 | 32.88601 | -97.03021 | 572 ft | 17 kts | 270° |
| 2026-04-26 01:53 | 32.88601 | -97.03122 | 570 ft | 12 kts | 270° |
| 2026-04-26 01:54 | 32.88601 | -97.03227 | 571 ft | 12 kts | 270° |
| 2026-04-26 01:54 | 32.88601 | -97.03293 | 577 ft | 4 kts | 270° |
| 2026-04-26 01:54 | 32.88602 | -97.03316 | 579 ft | 15 kts | 271° |
| 2026-04-26 01:54 | 32.88602 | -97.03444 | 582 ft | 3 kts | 270° |
| 2026-04-26 01:55 | 32.88603 | -97.03526 | 582 ft | 19 kts | 277° |
| 2026-04-26 01:55 | 32.88663 | -97.03565 | 583 ft | 13 kts | 357° |
| 2026-04-26 01:55 | 32.88725 | -97.03613 | 583 ft | 10 kts | 278° |
| 2026-04-26 01:55 | 32.88701 | -97.03693 | 583 ft | 11 kts | 244° |
| 2026-04-26 01:56 | 32.88691 | -97.03740 | 583 ft | 0 kts | 295° |
| 2026-04-26 01:56 | 32.88697 | -97.03743 | 583 ft | 2 kts | 11° |
| 2026-04-26 01:56 | 32.88725 | -97.03729 | 583 ft | 6 kts | 9° |
| 2026-04-26 01:56 | 32.88736 | -97.03729 | 583 ft | 1 kts | 349° |
| 2026-04-26 01:57 | 32.88738 | -97.03730 | 583 ft | 0 kts | 344° |
| 2026-04-26 01:57 | 32.88741 | -97.03731 | 583 ft | 1 kts | 343° |